Fykan — LLDJ — position and weather

sailwx.info

Track history (hours):
 
Tides and Currents Weather Stations Pressure Air Temp Water Temp Dewpoint Dewpoint Depression Visibility Wind Speed Wind Dir Waves Ship Positions

Fykan

Last reported at 2016-May-27 06:33 UTC. Time now 2016-May-27 20:12 UTC.
Position N 66°34' E 013°08'.

Length 52 m; draft 3.3 m.

Type: Ship. MMSI: 259681000.

Date/timePositionNaut miles runAvg speedWind from/ knotsBaromVisibWave heightAir tempDewpointWater temp
2016-May-27 06:33N 66°34' E 013°08'5 4.5
2016-May-27 05:25N 66°37' E 012°59'5 5.9
2016-May-27 04:33N 66°34' E 012°50'1 0.1
2016-May-26 18:33N 66°34' E 012°48'5 5.2
2016-May-26 17:31N 66°37' E 012°59'1 0.4
2016-May-26 14:24N 66°36' E 012°59'5 5.9
2016-May-26 13:33N 66°34' E 012°47'1 0.5
2016-May-26 10:33N 66°34' E 012°50'5 4.4
2016-May-26 09:22N 66°37' E 012°59'1 0.4
2016-May-26 06:22N 66°36' E 012°59'4 5.3
2016-May-26 05:33N 66°34' E 012°50'3 0.4
2016-May-25 21:32N 66°36' E 012°45'6 5.3
2016-May-25 20:25N 66°37' E 012°59'1 0.2
2016-May-25 14:30N 66°36' E 012°59'5 5.6
2016-May-25 13:33N 66°34' E 012°47'0 0.2
2016-May-25 10:32N 66°34' E 012°46'5 5.6
2016-May-25 09:33N 66°36' E 012°59'0 0.0
2016-May-25 06:21N 66°36' E 012°59'5 5.4
2016-May-25 05:26N 66°34' E 012°48'5 0.5
2016-May-24 20:12N 66°36' E 012°59'2 0.7
2016-May-24 17:17N 66°37' E 012°59'5 5.5
2016-May-24 16:20N 66°34' E 012°50'0 0.0
2016-May-24 10:31N 66°34' E 012°50'5 5.2
2016-May-24 09:31N 66°37' E 012°59'0 0.1
2016-May-24 05:33N 66°38' E 012°60'5 5.4
2016-May-24 04:33N 66°34' E 012°50'3 0.3
2016-May-23 18:20N 66°35' E 012°43'7 5.9
2016-May-23 17:10N 66°37' E 012°59'1 0.5
2016-May-23 14:29N 66°36' E 012°59'5 5.5
2016-May-23 13:33N 66°34' E 012°47'2 0.9
2016-May-23 11:26N 66°35' E 012°43'6 5.3
2016-May-23 10:15N 66°35' E 012°59'1 0.3
2016-May-23 06:20N 66°36' E 012°59'4 5.2
2016-May-23 05:31N 66°34' E 012°50'3 0.3
2016-May-22 21:09N 66°35' E 012°45'6 7.1
2016-May-22 20:21N 66°35' E 012°59'5 2.6
2016-May-22 18:31N 66°34' E 013°11'1 1.3
2016-May-22 17:23N 66°33' E 013°12'7 3.6
2016-May-22 15:32N 66°37' E 012°59'5 5.2
2016-May-22 14:32N 66°34' E 012°50'2 0.1
2016-May-21 10:28N 66°35' E 012°45'5 5.8
2016-May-21 09:32N 66°36' E 012°59'1 0.4
2016-May-21 06:26N 66°37' E 012°59'5 5.4
2016-May-21 05:29N 66°34' E 012°49'4 0.5
2016-May-20 20:12N 66°35' E 012°59'2 0.8
2016-May-20 17:21N 66°37' E 012°59'5 5.5
2016-May-20 16:24N 66°34' E 012°50'1 0.1
2016-May-20 04:28N 66°34' E 012°49'3 0.3
2016-May-19 18:32N 66°35' E 012°43'6 6.2
2016-May-19 17:31N 66°35' E 012°59'1 0.4
2016-May-19 14:30N 66°36' E 012°59'5 5.4
2016-May-19 13:33N 66°34' E 012°47'3 1.2
2016-May-19 11:12N 66°36' E 012°41'5 6.8
2016-May-19 10:26N 66°34' E 012°54'4 3.4
2016-May-19 09:13N 66°37' E 012°59'2 0.5
2016-May-19 06:21N 66°36' E 012°59'5 5.4
2016-May-19 05:30N 66°34' E 012°48'3 0.3
2016-May-18 20:33N 66°36' E 012°44'6 1.0
2016-May-18 14:23N 66°36' E 012°59'5 6.0
2016-May-18 13:33N 66°34' E 012°47'1 0.2
2016-May-18 10:30N 66°34' E 012°49'6 4.6
2016-May-18 09:17N 66°37' E 012°59'1 0.4
2016-May-18 06:21N 66°36' E 012°59'4 5.2
2016-May-18 05:32N 66°34' E 012°50'3 0.3
2016-May-17 20:26N 66°36' E 012°51'8 2.6
2016-May-17 17:15N 66°34' E 013°11'6 3.4
2016-May-17 15:31N 66°37' E 012°59'5 5.1
2016-May-17 14:33N 66°34' E 012°50'  
Track history (hours):
 
Tides and Currents Weather Stations Pressure Air Temp Water Temp Dewpoint Dewpoint Depression Visibility Wind Speed Wind Dir Waves Ship Positions

Fykan

Last reported at 2016-May-27 06:33 UTC. Time now 2016-May-27 20:12 UTC.
Position N 66°34' E 013°08'.

Length 52 m; draft 3.3 m.

Type: Ship. MMSI: 259681000.

Date/timePositionNaut miles runAvg speedWind from/ knotsBaromVisibWave heightAir tempDewpointWater temp
2016-May-27 06:33N 66°34' E 013°08'5 4.5
2016-May-27 05:25N 66°37' E 012°59'5 5.9
2016-May-27 04:33N 66°34' E 012°50'1 0.1
2016-May-26 18:33N 66°34' E 012°48'5 5.2
2016-May-26 17:31N 66°37' E 012°59'1 0.4
2016-May-26 14:24N 66°36' E 012°59'5 5.9
2016-May-26 13:33N 66°34' E 012°47'1 0.5
2016-May-26 10:33N 66°34' E 012°50'5 4.4
2016-May-26 09:22N 66°37' E 012°59'1 0.4
2016-May-26 06:22N 66°36' E 012°59'4 5.3
2016-May-26 05:33N 66°34' E 012°50'3 0.4
2016-May-25 21:32N 66°36' E 012°45'6 5.3
2016-May-25 20:25N 66°37' E 012°59'1 0.2
2016-May-25 14:30N 66°36' E 012°59'5 5.6
2016-May-25 13:33N 66°34' E 012°47'0 0.2
2016-May-25 10:32N 66°34' E 012°46'5 5.6
2016-May-25 09:33N 66°36' E 012°59'0 0.0
2016-May-25 06:21N 66°36' E 012°59'5 5.4
2016-May-25 05:26N 66°34' E 012°48'5 0.5
2016-May-24 20:12N 66°36' E 012°59'2 0.7
2016-May-24 17:17N 66°37' E 012°59'5 5.5
2016-May-24 16:20N 66°34' E 012°50'0 0.0
2016-May-24 10:31N 66°34' E 012°50'5 5.2
2016-May-24 09:31N 66°37' E 012°59'0 0.1
2016-May-24 05:33N 66°38' E 012°60'5 5.4
2016-May-24 04:33N 66°34' E 012°50'3 0.3
2016-May-23 18:20N 66°35' E 012°43'7 5.9
2016-May-23 17:10N 66°37' E 012°59'1 0.5
2016-May-23 14:29N 66°36' E 012°59'5 5.5
2016-May-23 13:33N 66°34' E 012°47'2 0.9
2016-May-23 11:26N 66°35' E 012°43'6 5.3
2016-May-23 10:15N 66°35' E 012°59'1 0.3
2016-May-23 06:20N 66°36' E 012°59'4 5.2
2016-May-23 05:31N 66°34' E 012°50'3 0.3
2016-May-22 21:09N 66°35' E 012°45'6 7.1
2016-May-22 20:21N 66°35' E 012°59'5 2.6
2016-May-22 18:31N 66°34' E 013°11'1 1.3
2016-May-22 17:23N 66°33' E 013°12'7 3.6
2016-May-22 15:32N 66°37' E 012°59'5 5.2
2016-May-22 14:32N 66°34' E 012°50'2 0.1
2016-May-21 10:28N 66°35' E 012°45'5 5.8
2016-May-21 09:32N 66°36' E 012°59'1 0.4
2016-May-21 06:26N 66°37' E 012°59'5 5.4
2016-May-21 05:29N 66°34' E 012°49'4 0.5
2016-May-20 20:12N 66°35' E 012°59'2 0.8
2016-May-20 17:21N 66°37' E 012°59'5 5.5
2016-May-20 16:24N 66°34' E 012°50'1 0.1
2016-May-20 04:28N 66°34' E 012°49'3 0.3
2016-May-19 18:32N 66°35' E 012°43'6 6.2
2016-May-19 17:31N 66°35' E 012°59'1 0.4
2016-May-19 14:30N 66°36' E 012°59'5 5.4
2016-May-19 13:33N 66°34' E 012°47'3 1.2
2016-May-19 11:12N 66°36' E 012°41'5 6.8
2016-May-19 10:26N 66°34' E 012°54'4 3.4
2016-May-19 09:13N 66°37' E 012°59'2 0.5
2016-May-19 06:21N 66°36' E 012°59'5 5.4
2016-May-19 05:30N 66°34' E 012°48'3 0.3
2016-May-18 20:33N 66°36' E 012°44'6 1.0
2016-May-18 14:23N 66°36' E 012°59'5 6.0
2016-May-18 13:33N 66°34' E 012°47'1 0.2
2016-May-18 10:30N 66°34' E 012°49'6 4.6
2016-May-18 09:17N 66°37' E 012°59'1 0.4
2016-May-18 06:21N 66°36' E 012°59'4 5.2
2016-May-18 05:32N 66°34' E 012°50'3 0.3
2016-May-17 20:26N 66°36' E 012°51'8 2.6
2016-May-17 17:15N 66°34' E 013°11'6 3.4
2016-May-17 15:31N 66°37' E 012°59'5 5.1
2016-May-17 14:33N 66°34' E 012°50'  

Dump ship's entire track history